Latest Weather Observations for Salmon Gums RS

IDW60801

Issued at 11:33 pm WST Saturday 3 December 2016 (issued every 30 minutes, with the page automatically refreshed every 10 minutes)

About weather observations | Map of weather stations | Latest weather observations for WA | Other Formats
Station Details ID: 012071 Name: SALMON GUMS RES.STN. Lat: -32.99 Lon: 121.62 Height: 249.0 m
Data from the previous 72 hours. | See also: Recent months at Salmon Gums RS
Date/Time
WST
Temp
°C
App
Temp
°C
Dew
Point
°C
Rel
Hum
%
Delta-T
°C
Wind Press
QNH
hPa
Press
MSL
hPa
Rain since
9am
mm
Dir  Spd
km/h
Gust
km/h
Spd
kts
Gust
kts
03/11:00pm 17.0 15.4 12.7 76 2.4 SSW 13 17 7 9 - - 0.0
03/10:30pm 16.8 14.0 12.5 76 2.4 SSW 19 30 10 16 - - 0.0
03/10:00pm 16.3 14.0 11.9 75 2.4 SSW 15 24 8 13 - - 0.0
03/09:30pm 14.8 13.1 9.8 72 2.6 SSW 9 13 5 7 - - 0.0
03/09:00pm 14.4 12.7 8.4 67 3.1 SSW 7 9 4 5 - - 0.0
03/08:30pm 15.6 12.9 8.8 64 3.5 SSW 13 17 7 9 - - 0.0
03/08:00pm 16.2 14.1 8.4 60 4.0 S 9 15 5 8 - - 0.0
03/07:30pm 17.5 14.3 8.4 55 4.7 S 15 22 8 12 - - 0.0
03/07:00pm 18.3 14.5 9.1 55 4.9 SSW 19 24 10 13 - - 0.0
03/06:30pm 19.6 15.8 9.8 53 5.3 SSW 20 32 11 17 - - 0.0
03/06:00pm 20.6 16.0 9.8 50 5.9 S 24 33 13 18 - - 0.0
03/05:30pm 22.1 17.1 9.6 45 6.8 S 26 35 14 19 - - 0.0
03/05:00pm 22.7 17.4 9.8 44 7.1 SSW 28 43 15 23 - - 0.0
03/04:30pm 24.1 17.8 8.9 38 8.3 SSW 32 48 17 26 - - 0.0
03/04:00pm 26.6 21.6 8.1 31 10.1 SSW 24 37 13 20 - - 0.0
03/03:30pm 26.4 20.2 7.9 31 10.0 SSW 30 41 16 22 - - 0.0
03/03:00pm 27.8 21.3 8.1 29 10.8 SSW 32 43 17 23 - - 0.0
03/02:30pm 30.2 24.2 8.6 26 12.1 SSW 30 46 16 25 - - 0.0
03/02:17pm 31.9 26.2 8.2 23 13.3 SW 28 52 15 28 - - 0.0
03/02:00pm 35.8 29.2 4.2 14 16.9 W 28 48 15 26 - - 0.0
03/01:30pm 36.2 29.3 2.3 12 17.7 WNW 28 48 15 26 - - 0.0
03/01:00pm 36.6 29.7 2.6 12 17.9 WNW 28 43 15 23 - - 0.0
03/12:30pm 35.5 29.4 4.9 15 16.6 NW 26 44 14 24 - - 0.0
03/12:00pm 35.3 29.2 4.8 15 16.5 NW 26 72 14 39 - - 0.0
03/11:59am 35.5 30.0 5.8 16 16.3 NW 24 72 13 39 - - 0.0
03/11:30am 34.3 30.1 7.4 19 15.0 WNW 19 35 10 19 - - 0.0
03/11:00am 33.6 28.9 7.6 20 14.5 NW 22 43 12 23 - - 0.0
03/10:30am 32.3 28.9 9.2 24 13.2 NW 17 28 9 15 - - 0.0
03/10:00am 30.3 26.5 9.2 27 11.9 NNW 19 30 10 16 - - 0.0
03/09:30am 27.7 23.2 8.6 30 10.5 N 22 33 12 18 - - 0.0
03/09:00am 26.3 22.9 9.2 34 9.5 N 17 24 9 13 - - 0.0
03/08:30am 23.7 20.2 8.9 39 8.0 NNE 17 33 9 18 - - 0.0
03/08:00am 21.7 17.9 8.9 44 6.9 NNE 19 33 10 18 - - 0.0
03/07:30am 21.0 16.6 8.9 46 6.5 NNE 22 32 12 17 - - 0.0
03/07:00am 19.5 15.1 9.1 51 5.5 NNE 22 33 12 18 - - 0.0
03/06:30am 18.0 14.5 8.8 55 4.8 NNE 17 24 9 13 - - 0.0
03/06:00am 16.6 13.5 8.8 60 4.1 NNE 15 24 8 13 - - 0.0
03/05:30am 14.3 12.5 8.0 66 3.2 NNE 7 13 4 7 - - 0.0
03/05:00am 12.9 11.0 7.6 70 2.6 NE 7 11 4 6 - - 0.0
03/04:30am 12.9 10.6 7.6 70 2.6 NE 9 15 5 8 - - 0.0
03/04:00am 13.0 10.8 7.7 70 2.6 NE 9 13 5 7 - - 0.0
03/03:30am 13.0 10.8 7.7 70 2.6 NE 9 13 5 7 - - 0.0
03/03:00am 13.2 10.6 7.6 69 2.8 ENE 11 17 6 9 - - 0.0
03/02:30am 13.3 10.3 7.7 69 2.8 ENE 13 20 7 11 - - 0.0
03/02:00am 13.2 10.5 7.4 68 2.9 ENE 11 17 6 9 - - 0.0
03/01:30am 13.0 9.9 7.2 68 2.9 E 13 17 7 9 - - 0.0
03/01:00am 13.2 9.7 7.2 67 3.0 E 15 19 8 10 - - 0.0
03/12:30am 13.6 10.1 7.2 65 3.2 E 15 22 8 12 - - 0.0
03/12:00am 13.9 9.6 7.0 63 3.4 E 19 24 10 13 - - 0.0
 
Date/Time
WST
Temp
°C
App
Temp
°C
Dew
Point
°C
Rel
Hum
%
Delta-T
°C
Wind Press
QNH
hPa
Press
MSL
hPa
Rain since
9am
mm
Dir  Spd
km/h
Gust
km/h
Spd
kts
Gust
kts
02/11:30pm 14.3 10.0 7.1 62 3.6 E 19 28 10 15 - - 0.0
02/11:00pm 15.0 10.6 7.5 61 3.8 E 20 30 11 16 - - 0.0
02/10:30pm 15.6 11.2 7.6 59 4.0 E 20 30 11 16 - - 0.0
02/10:00pm 16.1 11.7 7.3 56 4.4 ESE 20 28 11 15 - - 0.0
02/09:30pm 16.5 12.1 7.2 54 4.7 E 20 28 11 15 - - 0.0
02/09:00pm 16.4 12.1 6.8 53 4.8 ESE 19 28 10 15 - - 0.0
02/08:30pm 16.8 12.5 6.9 52 5.0 ESE 19 28 10 15 - - 0.0
02/08:00pm 17.2 13.2 6.7 50 5.3 ESE 17 24 9 13 - - 0.0
02/07:30pm 17.8 12.9 6.7 48 5.6 SE 22 37 12 20 - - 0.0
02/07:00pm 18.6 13.2 6.4 45 6.1 SE 24 39 13 21 - - 0.0
02/06:30pm 20.2 13.9 5.8 39 7.2 SE 28 48 15 26 - - 0.0
02/06:25pm 20.6 14.3 5.8 38 7.5 SE 28 48 15 26 - - 0.0
02/06:00pm 22.1 16.1 5.1 33 8.5 SE 26 39 14 21 - - 0.0
02/05:30pm 24.2 19.7 4.0 27 10.1 SSE 17 33 9 18 - - 0.0
02/05:00pm 26.0 23.5 4.5 25 10.9 SSE 7 11 4 6 - - 0.0
02/04:30pm 26.1 24.0 4.0 24 11.2 SE 4 9 2 5 - - 0.0
02/04:00pm 27.0 24.0 4.1 23 11.6 ENE 9 17 5 9 - - 0.0
02/03:30pm 26.2 23.2 4.1 24 11.2 E 9 22 5 12 - - 0.0
02/03:00pm 26.2 22.4 4.1 24 11.2 NE 13 24 7 13 - - 0.0
02/02:30pm 26.1 21.9 4.0 24 11.2 SE 15 22 8 12 - - 0.0
02/02:00pm 25.5 22.4 3.5 24 11.0 ENE 9 20 5 11 - - 0.0
02/01:30pm 25.5 22.1 4.0 25 10.8 SSE 11 26 6 14 - - 0.0
02/01:00pm 24.7 22.2 4.5 27 10.2 S 7 15 4 8 - - 0.0
02/12:30pm 23.7 20.9 5.1 30 9.4 ENE 9 22 5 12 - - 0.0
02/12:00pm 22.8 19.8 4.3 30 9.2 E 9 17 5 9 - - 0.0
02/11:30am 21.2 18.8 5.1 35 8.0 E 7 11 4 6 - - 0.0
02/11:00am 21.0 18.3 5.4 36 7.8 ENE 9 17 5 9 - - 0.0
02/10:30am 20.1 17.0 5.4 38 7.3 ENE 11 19 6 10 - - 0.0
02/10:00am 18.7 15.6 5.5 42 6.5 NE 11 20 6 11 - - 0.0
02/09:30am 18.1 15.3 5.3 43 6.3 ENE 9 19 5 10 - - 0.0
02/09:00am 17.3 13.5 5.9 47 5.6 ENE 15 20 8 11 - - 0.0
02/08:30am 17.4 14.4 6.0 47 5.6 ENE 11 17 6 9 - - 0.0
02/08:00am 16.2 13.2 6.1 51 5.0 ENE 11 20 6 11 - - 0.0
02/07:30am 15.7 12.4 6.4 54 4.6 E 13 19 7 10 - - 0.0
02/07:00am 14.3 11.2 7.1 62 3.6 ENE 13 19 7 10 - - 0.0
02/06:30am 12.9 11.1 7.8 71 2.5 ENE 7 9 4 5 - - 0.0
02/06:00am 9.5 9.0 7.8 89 0.8 CALM 0 0 0 0 - - 0.0
02/05:30am 5.1 3.7 3.4 89 0.7 CALM 0 0 0 0 - - 0.0
02/05:00am 2.9 1.1 1.3 89 0.6 CALM 0 0 0 0 - - 0.0
02/04:30am 2.7 0.9 0.9 88 0.7 CALM 0 0 0 0 - - 0.0
02/04:00am 3.1 1.3 1.2 87 0.7 CALM 0 0 0 0 - - 0.0
02/03:30am 3.5 1.7 1.5 87 0.8 CALM 0 0 0 0 - - 0.0
02/03:00am 4.2 2.6 2.2 87 0.8 CALM 0 0 0 0 - - 0.0
02/02:30am 4.6 3.0 2.5 86 0.9 CALM 0 4 0 2 - - 0.0
02/02:00am 5.3 3.8 3.0 85 1.0 CALM 0 0 0 0 - - 0.0
02/01:30am 5.9 4.1 3.6 85 1.0 E 2 2 1 1 - - 0.0
02/01:00am 6.7 4.3 4.4 85 1.0 E 6 6 3 3 - - 0.0
02/12:30am 6.5 4.0 3.8 83 1.2 ESE 6 6 3 3 - - 0.0
02/12:00am 7.8 5.5 4.7 81 1.4 ESE 6 9 3 5 - - 0.0
 
Date/Time
WST
Temp
°C
App
Temp
°C
Dew
Point
°C
Rel
Hum
%
Delta-T
°C
Wind Press
QNH
hPa
Press
MSL
hPa
Rain since
9am
mm
Dir  Spd
km/h
Gust
km/h
Spd
kts
Gust
kts
01/11:30pm 9.0 6.7 5.7 80 1.5 SE 7 9 4 5 - - 0.0
01/11:00pm 9.4 7.1 5.9 79 1.6 ESE 7 9 4 5 - - 0.0
01/10:30pm 9.9 7.6 5.7 75 2.0 ESE 7 9 4 5 - - 0.0
01/10:00pm 11.1 8.2 6.3 72 2.3 SE 11 15 6 8 - - 0.0
01/09:30pm 11.7 8.4 6.4 70 2.5 SSE 13 17 7 9 - - 0.0
01/09:00pm 12.2 8.5 6.5 68 2.7 SSE 15 22 8 12 - - 0.0
01/08:30pm 12.9 9.0 6.9 67 2.9 SSE 17 24 9 13 - - 0.0
01/08:00pm 13.5 10.0 7.1 65 3.2 SSE 15 24 8 13 - - 0.0
01/07:30pm 14.3 10.0 7.1 62 3.6 SSE 19 30 10 16 - - 0.0
01/07:00pm 15.3 10.8 7.1 58 4.1 SSE 20 28 11 15 - - 0.0
01/06:30pm 15.7 11.7 6.7 55 4.5 S 17 24 9 13 - - 0.0
01/06:00pm 16.5 12.1 7.2 54 4.7 S 20 26 11 14 - - 0.0
01/05:30pm 17.3 12.8 7.1 51 5.2 S 20 30 11 16 - - 0.0
01/05:00pm 18.8 14.2 6.6 45 6.2 S 20 33 11 18 - - 0.0
01/04:30pm 20.7 16.7 6.6 40 7.2 SSE 17 24 9 13 - - 0.0
01/04:00pm 20.4 16.0 6.7 41 7.0 S 19 33 10 18 - - 0.0
01/03:30pm 20.5 15.7 7.5 43 6.8 S 22 32 12 17 - - 0.0
01/03:00pm 20.2 15.5 7.6 44 6.6 S 22 35 12 19 - - 0.0
01/02:30pm 19.9 15.1 7.3 44 6.5 S 22 35 12 19 - - 0.0
01/02:00pm 20.1 16.1 8.1 46 6.3 S 19 33 10 18 - - 0.0
01/01:30pm 21.6 18.0 9.8 47 6.4 S 19 30 10 16 - - 0.0
01/01:00pm 19.9 15.7 9.8 52 5.5 S 22 32 12 17 - - 0.0
01/12:30pm 19.0 15.6 10.6 58 4.6 SSW 19 30 10 16 - - 0.0
01/12:00pm 17.5 13.5 10.6 64 3.7 SSW 22 35 12 19 - - 0.0
01/11:30am 16.6 13.4 12.0 74 2.5 S 20 30 11 16 - - 0.0
01/11:00am 15.7 13.1 13.9 89 1.0 S 20 28 11 15 - - 0.0
01/10:30am 15.4 11.8 13.1 86 1.3 SSW 24 35 13 19 - - 0.0
01/10:00am 17.7 17.4 13.2 75 2.6 SSW 7 15 4 8 - - 0.0
01/09:30am 17.4 14.9 12.3 72 2.9 SW 17 28 9 15 - - 0.0
01/09:00am 18.0 15.5 10.9 63 3.9 SSW 15 22 8 12 - - 0.0
01/08:30am 17.4 15.2 10.8 65 3.6 SSW 13 19 7 10 - - 0.0
01/08:00am 16.9 14.9 10.3 65 3.5 SSW 11 19 6 10 - - 0.0
01/07:30am 16.9 15.9 11.0 68 3.2 SW 7 13 4 7 - - 0.0
01/07:00am 16.1 15.4 11.3 73 2.6 SW 6 11 3 6 - - 0.0
01/06:30am 14.7 14.7 12.4 86 1.3 W 4 7 2 4 - - 0.0
01/06:00am 12.4 11.9 10.8 90 0.8 WNW 4 6 2 3 - - 0.0
01/05:30am 10.4 9.0 9.0 91 0.7 NW 6 7 3 4 - - 0.0
01/05:00am 8.4 6.5 6.9 90 0.7 NW 6 6 3 3 - - 0.0
01/04:30am 8.3 6.8 6.8 90 0.7 WSW 4 6 2 3 - - 0.0
01/04:00am 8.6 7.1 6.9 89 0.8 WSW 4 4 2 2 - - 0.0
01/03:30am 9.1 7.7 7.4 89 0.8 S 4 4 2 2 - - 0.0
01/03:00am 9.9 9.5 8.2 89 0.8 CALM 0 0 0 0 - - 0.0
01/02:30am 11.5 11.1 9.8 89 0.9 S 2 4 1 2 - - 0.0
01/02:00am 12.4 11.5 10.8 90 0.8 S 6 7 3 4 - - 0.0
01/01:30am 11.6 10.3 9.9 89 0.9 SW 7 9 4 5 - - 0.0
01/01:00am 11.7 10.6 9.8 88 1.0 SSW 6 9 3 5 - - 0.0
01/12:30am 11.7 10.5 9.4 86 1.2 SSW 6 7 3 4 - - 0.0
01/12:00am 12.2 10.9 9.8 85 1.2 SSW 7 9 4 5 - - 0.0

Other Formats:

Comma delimited format used in spreadsheet applications
http://www.bom.gov.au/fwo/IDW60801/IDW60801.95639.axf

JavaScript Object Notation format (JSON) in row-major order
http://www.bom.gov.au/fwo/IDW60801/IDW60801.95639.json